Time;durP1;ratioP1;P1;durP2;ratioP2;P2;SDS_P1;SDS_P2;PMS_P1;PMS_P2;Temp;Humidity;BMP_temperature;BMP_pressure;BME280_temperature;BME280_humidity;BME280_pressure;Samples;Min_cycle;Max_cycle;Signal;HPM_P1;HPM_P2
2021/11/20 00:00:34;;;;;;;46.92;25.67;;;12.00;99.90;;;9.95;100.00;101838.31;5006786;28;20045;-86
2021/11/20 00:03:01;;;;;;;48.13;25.48;;;12.00;99.90;;;9.97;100.00;101836.31;5010341;28;20045;-85
2021/11/20 00:05:35;;;;;;;47.33;25.20;;;12.00;99.90;;;9.97;100.00;101833.59;5010330;28;20042;-85
2021/11/20 00:08:06;;;;;;;45.85;24.65;;;12.00;99.90;;;9.96;100.00;101828.31;5008832;28;20058;-85
2021/11/20 00:10:38;;;;;;;50.90;24.88;;;12.00;99.90;;;9.94;100.00;101827.63;5005572;28;20081;-85
2021/11/20 00:13:08;;;;;;;48.55;25.40;;;12.00;99.90;;;9.95;100.00;101823.88;5009143;28;20073;-85
2021/11/20 00:15:39;;;;;;;45.85;24.55;;;12.00;99.90;;;9.96;100.00;101825.59;5009889;28;20478;-86
2021/11/20 00:18:08;;;;;;;46.17;23.80;;;12.00;99.90;;;9.97;100.00;101830.88;5009134;28;20078;-85
2021/11/20 00:20:45;;;;;;;45.50;25.33;;;12.00;99.90;;;10.00;100.00;101827.00;5007437;28;20116;-86
2021/11/20 07:47:10;;;;;;;55.50;25.90;;;11.50;99.90;;;9.56;100.00;101595.69;5046037;23;20721;-84
2021/11/20 07:49:43;;;;;;;51.97;25.05;;;11.50;99.90;;;9.56;100.00;101591.09;5025028;28;20067;-85
2021/11/20 07:52:14;;;;;;;52.58;25.33;;;11.50;99.90;;;9.57;100.00;101592.81;5043638;28;20044;-88
2021/11/20 07:54:48;;;;;;;56.00;27.35;;;11.50;99.90;;;9.60;100.00;101597.09;5027985;28;20053;-88
2021/11/20 07:57:31;;;;;;;52.85;25.30;;;11.60;99.90;;;9.63;100.00;101591.34;5027539;28;20052;-87
2021/11/20 08:00:09;;;;;;;55.92;26.70;;;11.60;99.90;;;9.67;100.00;101592.78;5024166;28;20588;-87
2021/11/20 08:02:55;;;;;;;54.80;26.10;;;11.50;99.90;;;9.68;100.00;101585.47;5011410;28;20471;-87
2021/11/20 08:05:50;;;;;;;52.20;25.17;;;11.60;99.90;;;9.73;100.00;101586.72;5008274;28;20045;-87
2021/11/20 08:08:40;;;;;;;55.33;26.50;;;11.60;99.90;;;9.74;100.00;101580.25;5012994;28;20099;-88
2021/11/20 08:11:28;;;;;;;48.72;25.35;;;11.60;99.90;;;9.77;100.00;101574.53;5027064;28;20049;-88
2021/11/20 08:13:57;;;;;;;51.63;24.70;;;11.70;99.90;;;9.82;100.00;101578.66;5026177;28;20053;-89
2021/11/20 08:16:29;;;;;;;50.47;25.08;;;11.70;99.90;;;9.83;100.00;101581.22;5026054;28;20041;-87
2021/11/20 08:19:16;;;;;;;52.25;26.38;;;11.70;99.90;;;9.81;100.00;101571.50;5026090;28;20131;-88
2021/11/20 08:22:13;;;;;;;50.28;25.90;;;11.70;99.90;;;9.82;100.00;101573.22;5011331;28;20768;-86
2021/11/20 08:24:40;;;;;;;52.42;26.05;;;11.70;99.90;;;9.87;100.00;101560.88;5027399;28;20112;-85
2021/11/20 08:27:11;;;;;;;48.28;25.20;;;11.70;99.90;;;9.85;100.00;101567.47;5025995;28;20045;-85
2021/11/20 08:30:01;;;;;;;48.88;25.30;;;11.70;99.90;;;9.84;100.00;101563.88;5027176;28;20049;-85
2021/11/20 08:32:42;;;;;;;45.53;23.77;;;11.70;99.90;;;9.86;100.00;101559.16;5026694;28;20057;-85
2021/11/20 08:35:30;;;;;;;53.17;25.15;;;11.70;99.90;;;9.87;100.00;101560.88;5007038;28;20410;-87
2021/11/20 08:38:59;;;;;;;48.10;24.05;;;11.80;99.90;;;9.88;100.00;101553.56;5008767;28;20060;-87
2021/11/20 08:41:26;;;;;;;52.03;25.92;;;11.70;99.90;;;9.89;100.00;101547.97;5001078;28;20054;-85
2021/11/20 08:43:55;;;;;;;54.88;25.27;;;11.80;99.90;;;9.88;100.00;101545.41;5022292;28;20056;-86
2021/11/20 08:46:30;;;;;;;54.75;26.45;;;11.80;99.90;;;9.91;100.00;101539.66;5007251;28;20067;-85
2021/11/20 08:48:58;;;;;;;52.35;25.17;;;11.80;99.90;;;9.92;100.00;101544.09;5005238;28;20124;-85
2021/11/20 08:51:28;;;;;;;50.60;24.92;;;11.80;99.90;;;9.96;100.00;101551.78;5005554;28;20065;-85
2021/11/20 08:54:12;;;;;;;51.58;26.38;;;11.80;99.90;;;9.97;100.00;101549.91;5006161;28;20049;-84
2021/11/20 08:57:08;;;;;;;55.83;27.40;;;11.80;99.90;;;9.98;100.00;101546.19;5006836;28;20042;-85
2021/11/20 09:00:18;;;;;;;54.28;27.92;;;11.80;99.90;;;9.97;100.00;101548.03;5005901;28;20069;-85
2021/11/20 09:03:23;;;;;;;47.72;25.25;;;11.90;99.90;;;10.03;100.00;101543.00;5006189;28;20061;-85
2021/11/20 09:05:57;;;;;;;56.03;27.63;;;11.90;99.90;;;10.02;100.00;101538.59;5004950;28;20045;-85
2021/11/20 09:08:40;;;;;;;54.60;26.55;;;11.90;99.90;;;10.03;100.00;101538.41;4999198;28;20046;-85
2021/11/20 09:11:30;;;;;;;55.05;27.20;;;11.90;99.90;;;10.04;100.00;101540.13;4987858;28;20049;-85
2021/11/20 09:14:03;;;;;;;58.38;27.52;;;11.90;99.90;;;10.05;100.00;101541.84;4985824;28;20108;-85
2021/11/20 09:16:42;;;;;;;57.92;27.00;;;11.90;99.90;;;10.12;100.00;101537.47;4986432;28;20445;-85
2021/11/20 09:19:15;;;;;;;55.40;27.60;;;11.90;99.90;;;10.12;100.00;101537.47;4991785;28;20497;-84
2021/11/20 09:21:43;;;;;;;55.70;27.65;;;11.90;99.90;;;10.12;100.00;101532.03;5004840;28;20053;-84
2021/11/20 09:24:40;;;;;;;54.47;26.23;;;12.00;99.90;;;10.16;100.00;101533.41;5006355;28;20044;-85
2021/11/20 09:27:21;;;;;;;53.58;26.10;;;12.00;99.90;;;10.20;100.00;101530.41;5005142;28;20046;-85
2021/11/20 09:29:48;;;;;;;52.30;26.83;;;12.00;99.90;;;10.24;100.00;101539.94;5005460;28;20049;-84
2021/11/20 09:32:17;;;;;;;58.03;26.42;;;12.00;99.90;;;10.25;100.00;101536.22;5005731;28;20399;-85
2021/11/20 09:34:47;;;;;;;48.25;25.30;;;12.00;99.90;;;10.27;100.00;101534.22;5004615;28;20566;-85
2021/11/20 09:37:34;;;;;;;50.70;25.92;;;12.00;99.90;;;10.26;100.00;101533.38;5005287;28;20050;-85
2021/11/20 09:40:17;;;;;;;47.58;25.33;;;12.00;99.90;;;10.26;100.00;101527.91;5005549;28;20414;-85
2021/11/20 09:42:48;;;;;;;46.33;23.80;;;12.00;99.90;;;10.27;100.00;101523.31;5014572;23;20149;-85
2021/11/20 09:45:21;;;;;;;49.28;24.77;;;12.10;99.90;;;10.32;100.00;101521.03;4999075;28;20046;-84
2021/11/20 09:47:58;;;;;;;41.88;23.23;;;12.00;99.90;;;10.33;100.00;101518.13;4987833;28;20042;-84
2021/11/20 09:50:30;;;;;;;43.33;23.40;;;12.00;99.90;;;10.34;100.00;101511.69;4987665;28;20050;-85
2021/11/20 09:53:00;;;;;;;43.63;23.17;;;12.10;99.90;;;10.36;100.00;101506.09;4987646;28;20124;-85
2021/11/20 09:55:33;;;;;;;40.05;23.60;;;12.10;99.90;;;10.37;100.00;101513.22;4991200;28;20043;-85
2021/11/20 09:58:10;;;;;;;44.28;23.73;;;12.10;99.90;;;10.42;100.00;101510.88;4988961;28;20081;-85
2021/11/20 10:01:20;;;;;;;44.13;24.27;;;12.10;99.90;;;10.43;100.00;101509.84;4986563;28;20030;-84
2021/11/20 10:03:53;;;;;;;39.72;23.55;;;12.10;99.90;;;10.43;100.00;101504.41;4969780;28;20078;-82
2021/11/20 10:06:29;;;;;;;43.85;24.42;;;12.10;99.90;;;10.42;100.00;101505.44;4969431;28;20101;-79
2021/11/20 10:09:14;;;;;;;45.40;24.75;;;12.10;99.90;;;10.41;100.00;101502.88;4981409;28;20133;-83
2021/11/20 10:11:57;;;;;;;50.42;23.52;;;12.10;99.90;;;10.42;100.00;101499.16;5003711;28;20061;-82
2021/11/20 10:14:37;;;;;;;43.65;24.60;;;12.10;99.90;;;10.41;100.00;101498.28;5003413;28;20065;-82
2021/11/20 10:17:19;;;;;;;42.13;23.63;;;12.10;99.90;;;10.41;100.00;101492.84;4988870;28;20127;-82
2021/11/20 10:19:51;;;;;;;39.78;22.63;;;12.20;99.90;;;10.42;100.00;101499.16;4978211;28;20491;-82
2021/11/20 10:22:30;;;;;;;38.67;22.08;;;12.10;99.90;;;10.41;100.00;101498.28;4978694;28;20057;-82
2021/11/20 10:25:22;;;;;;;39.63;21.73;;;12.20;99.90;;;10.45;100.00;101487.94;4982162;28;20491;-82
2021/11/20 10:28:15;;;;;;;37.63;20.38;;;12.20;99.90;;;10.43;100.00;101489.97;4983841;28;20118;-82
2021/11/20 10:30:55;;;;;;;36.15;20.77;;;12.20;99.90;;;10.42;100.00;101472.78;4969326;28;20098;-82
2021/11/20 10:33:31;;;;;;;38.17;21.10;;;12.20;99.90;;;10.40;100.00;101466.66;4979089;28;20121;-82
2021/11/20 10:36:09;;;;;;;37.47;19.75;;;12.20;99.90;;;10.40;100.00;101469.38;4990994;28;20177;-82
2021/11/20 10:38:42;;;;;;;33.75;19.70;;;12.20;99.90;;;10.45;100.00;101460.72;4991039;28;20568;-82
2021/11/20 10:41:19;;;;;;;32.10;18.73;;;12.20;99.90;;;10.44;100.00;101457.16;4992372;28;20149;-82
2021/11/20 10:43:55;;;;;;;32.50;18.92;;;12.20;99.90;;;10.43;100.00;101458.16;4987258;28;20129;-82
2021/11/20 10:46:29;;;;;;;33.60;19.55;;;12.20;99.90;;;10.49;100.00;101454.81;4972855;28;20074;-82
2021/11/20 10:49:44;;;;;;;32.03;18.55;;;12.20;99.90;;;10.49;100.00;101454.81;4987775;28;20138;-83
2021/11/20 10:52:27;;;;;;;33.25;19.30;;;12.20;99.90;;;10.48;100.00;101436.75;4972742;28;20570;-83
2021/11/20 10:55:20;;;;;;;34.08;19.23;;;12.20;99.90;;;10.46;100.00;101440.66;4983461;28;20082;-82
2021/11/20 10:58:39;;;;;;;37.08;19.02;;;12.20;99.90;;;10.48;100.00;101431.31;4992155;28;20489;-82
2021/11/20 11:01:56;;;;;;;34.13;17.95;;;12.20;99.90;;;10.51;100.00;101422.84;4990581;28;20157;-82
2021/11/20 11:04:58;;;;;;;32.33;17.50;;;12.20;99.90;;;10.51;100.00;101417.41;4984970;28;20050;-82
2021/11/20 11:07:33;;;;;;;31.08;17.15;;;12.20;99.90;;;10.49;100.00;101424.88;4991977;28;20612;-83
2021/11/20 11:10:05;;;;;;;33.20;17.60;;;12.20;99.90;;;10.51;100.00;101422.84;4985621;28;20527;-82
2021/11/20 11:12:42;;;;;;;31.02;17.35;;;12.30;99.90;;;10.48;100.00;101425.03;4972545;28;20039;-83
2021/11/20 11:15:21;;;;;;;33.47;17.25;;;12.20;99.90;;;10.49;100.00;101411.25;4985858;28;20129;-82
2021/11/20 11:18:25;;;;;;;29.75;16.60;;;12.30;99.90;;;10.47;100.00;101405.13;4991914;28;20134;-82
2021/11/20 11:21:38;;;;;;;29.65;17.38;;;12.30;99.90;;;10.48;100.00;101395.94;4972270;28;20462;-83
2021/11/20 11:24:25;;;;;;;28.38;16.10;;;12.30;99.90;;;10.49;100.00;101402.22;4977734;28;20046;-82
2021/11/20 11:26:58;;;;;;;32.30;15.85;;;12.30;99.90;;;10.49;100.00;101396.78;4991572;28;20042;-82
2021/11/20 11:29:58;;;;;;;28.02;16.77;;;12.30;99.90;;;10.48;100.00;101393.22;4991412;28;20042;-82
2021/11/20 11:32:26;;;;;;;28.60;15.90;;;12.30;99.90;;;10.50;100.00;101398.50;4991295;28;20085;-82
2021/11/20 11:34:59;;;;;;;27.15;16.02;;;12.20;99.90;;;10.48;100.00;101390.50;4987323;28;20068;-83
2021/11/20 11:37:40;;;;;;;27.80;15.65;;;12.20;99.90;;;10.46;100.00;101378.91;4989960;28;20096;-82
2021/11/20 11:40:25;;;;;;;25.60;14.93;;;12.20;99.90;;;10.44;100.00;101383.66;4991284;28;20046;-82
2021/11/20 11:43:01;;;;;;;28.55;16.15;;;12.20;99.90;;;10.44;100.00;101377.38;4990328;28;20129;-82
2021/11/20 11:46:21;;;;;;;28.08;16.90;;;12.30;99.90;;;10.41;100.00;101378.53;4988940;28;20473;-82
2021/11/20 11:49:42;;;;;;;27.50;15.98;;;12.30;99.90;;;10.41;100.00;101367.66;4971786;28;20047;-82
2021/11/20 11:52:52;;;;;;;27.42;15.60;;;12.30;99.90;;;10.43;100.00;101364.78;4971987;28;20049;-83
2021/11/20 11:55:44;;;;;;;27.35;16.23;;;12.20;99.90;;;10.42;100.00;101358.50;4986894;28;20141;-83
2021/11/20 11:58:57;;;;;;;27.45;15.45;;;12.20;99.90;;;10.40;100.00;101355.09;4990676;28;20069;-83
2021/11/20 12:01:42;;;;;;;25.35;15.65;;;12.20;99.90;;;10.38;100.00;101346.22;4965033;28;20150;-82
2021/11/20 12:04:19;;;;;;;27.98;15.32;;;12.20;99.90;;;10.39;100.00;101339.75;4977137;28;20042;-83
2021/11/20 12:07:45;;;;;;;28.23;16.10;;;12.20;99.90;;;10.42;100.00;101331.28;4990739;28;20112;-85
2021/11/20 12:10:33;;;;;;;25.90;15.20;;;12.20;99.90;;;10.39;100.00;101334.31;4989345;28;20108;-83
2021/11/20 12:13:05;;;;;;;26.65;15.48;;;12.20;99.90;;;10.42;100.00;101320.41;4988805;28;20050;-83
2021/11/20 12:15:40;;;;;;;24.02;14.88;;;12.20;99.90;;;10.39;100.00;101323.44;5002224;28;20117;-82
2021/11/20 12:18:35;;;;;;;23.77;13.80;;;12.20;99.90;;;10.34;100.00;101314.94;4990562;28;20046;-82
2021/11/20 12:21:16;;;;;;;23.10;14.13;;;12.20;99.90;;;10.35;100.00;101322.06;4971275;28;20175;-83
2021/11/20 12:23:53;;;;;;;23.73;14.38;;;12.20;99.90;;;10.35;100.00;101303.84;4972076;28;20141;-82
2021/11/20 12:26:26;;;;;;;25.38;14.43;;;12.20;99.90;;;10.36;100.00;101302.00;4970701;28;20082;-82
2021/11/20 12:29:32;;;;;;;22.70;14.63;;;12.20;99.90;;;10.40;100.00;101294.38;4968421;28;20066;-82
2021/11/20 12:32:40;;;;;;;22.23;13.48;;;12.20;99.90;;;10.37;100.00;101296.38;4970801;28;20046;-82
2021/11/20 12:35:27;;;;;;;22.25;13.82;;;12.20;99.90;;;10.34;100.00;101283.13;4984171;28;20073;-82
2021/11/20 12:38:10;;;;;;;21.42;12.90;;;12.20;99.90;;;10.34;100.00;101280.41;4978724;28;20034;-83
2021/11/20 12:41:08;;;;;;;23.90;12.73;;;12.20;99.90;;;10.33;100.00;101278.69;4970928;28;20118;-83
2021/11/20 12:44:28;;;;;;;19.85;12.68;;;12.20;99.90;;;10.34;100.00;101274.13;4972690;28;20052;-82
2021/11/20 12:47:26;;;;;;;18.33;12.23;;;12.10;99.90;;;10.33;100.00;101261.50;4970614;28;20109;-82
2021/11/20 12:50:07;;;;;;;19.60;12.23;;;12.10;99.90;;;10.33;100.00;101259.63;4970399;28;20047;-82
2021/11/20 12:52:37;;;;;;;;;;;12.20;99.70;;;10.31;100.00;101258.13;4971022;28;20082;-82
2021/11/20 12:55:35;;;;;;;23.35;11.98;;;12.20;99.90;;;10.32;100.00;101249.78;4971343;28;19929;-82
2021/11/20 12:58:16;;;;;;;18.90;11.43;;;12.20;99.90;;;10.31;100.00;101241.78;4987640;28;20564;-83
2021/11/20 13:00:49;;;;;;;18.15;11.77;;;12.10;99.00;;;10.27;100.00;101243.09;4973698;28;20039;-82
2021/11/20 13:03:32;;;;;;;21.60;11.52;;;12.00;99.20;;;10.21;100.00;101232.88;4976801;28;20546;-83
2021/11/20 13:06:05;;;;;;;20.55;11.70;;;12.10;99.80;;;10.18;100.00;101234.94;5000055;28;20113;-83
2021/11/20 13:08:36;;;;;;;17.40;10.63;;;12.10;99.80;;;10.22;100.00;101231.84;4986127;28;20400;-83
2021/11/20 13:11:09;;;;;;;17.45;10.27;;;12.10;99.70;;;10.22;100.00;101238.13;4978129;28;20084;-83
2021/11/20 13:13:47;;;;;;;17.17;11.23;;;12.00;99.60;;;10.22;100.00;101229.13;4984660;28;20076;-83
2021/11/20 13:16:43;;;;;;;17.02;11.25;;;12.10;99.90;;;10.22;100.00;101220.97;4987378;28;20053;-82
2021/11/20 13:19:20;;;;;;;16.38;11.20;;;12.10;99.50;;;10.22;100.00;101215.53;4970358;28;20043;-83
2021/11/20 13:22:12;;;;;;;17.63;11.35;;;12.10;99.50;;;10.21;100.00;101208.41;4982874;28;20073;-83
2021/11/20 13:24:47;;;;;;;17.05;11.48;;;12.10;99.50;;;10.17;100.00;101202.44;4980000;28;20038;-83
2021/11/20 13:27:55;;;;;;;17.33;10.70;;;12.10;99.70;;;10.16;100.00;101195.28;4982410;28;20121;-83
2021/11/20 13:30:31;;;;;;;19.15;10.48;;;12.10;99.70;;;10.14;100.00;101190.00;4988850;28;20434;-83
2021/11/20 13:33:02;;;;;;;21.60;11.50;;;12.10;99.50;;;10.15;100.00;101189.00;4982416;28;20093;-83
2021/11/20 13:35:34;;;;;;;15.32;10.15;;;12.10;99.60;;;10.16;100.00;101179.81;4982035;28;20053;-83
2021/11/20 13:38:04;;;;;;;17.33;11.13;;;12.10;99.50;;;10.13;100.00;101182.88;4969900;28;20050;-82
2021/11/20 13:40:34;;;;;;;14.77;9.95;;;12.10;99.20;;;10.13;100.00;101177.44;4974501;28;20528;-82
2021/11/20 13:43:10;;;;;;;16.60;10.32;;;12.10;99.30;;;10.14;100.00;101175.56;4975149;28;20057;-83
2021/11/20 13:45:37;;;;;;;14.93;10.02;;;12.00;99.00;;;10.15;100.00;101171.84;5005726;23;20054;-86
2021/11/20 13:48:05;;;;;;;16.05;10.40;;;12.00;99.00;;;10.11;100.00;101165.88;5000430;28;20050;-86
2021/11/20 13:50:44;;;;;;;16.48;11.10;;;12.00;99.00;;;10.13;100.00;101166.56;5007158;28;20117;-86
2021/11/20 13:53:17;;;;;;;15.23;11.02;;;12.00;99.20;;;10.10;100.00;101166.88;4999964;28;20058;-85
2021/11/20 13:55:48;;;;;;;20.00;11.75;;;12.00;98.90;;;10.09;100.00;101156.16;5005985;28;20084;-86
2021/11/20 13:58:27;;;;;;;19.90;12.93;;;12.00;99.00;;;10.04;100.00;101153.94;4990755;28;20073;-86
2021/11/20 14:00:57;;;;;;;18.33;11.98;;;12.00;99.20;;;10.06;100.00;101149.19;5005945;28;20068;-85
2021/11/20 14:03:26;;;;;;;17.30;11.30;;;12.00;99.00;;;10.06;100.00;101149.19;5007295;28;20092;-86
2021/11/20 14:05:54;;;;;;;19.48;11.90;;;12.00;98.80;;;10.11;100.00;101151.41;4992820;28;20130;-88
2021/11/20 14:08:22;;;;;;;18.85;11.40;;;11.90;99.00;;;10.09;100.00;101151.59;5008317;28;20077;-85
2021/11/20 14:10:58;;;;;;;17.65;11.73;;;12.00;99.10;;;10.04;100.00;101148.50;5010608;28;20128;-85
2021/11/20 14:13:32;;;;;;;17.38;10.98;;;12.00;99.00;;;9.97;100.00;101148.31;5011647;28;20038;-85
2021/11/20 14:16:02;;;;;;;19.38;12.13;;;12.00;98.90;;;9.94;100.00;101137.78;5011404;28;20127;-85
2021/11/20 14:18:31;;;;;;;18.27;10.98;;;12.00;98.80;;;9.95;100.00;101135.91;4997171;28;20140;-82
2021/11/20 14:21:02;;;;;;;16.95;11.35;;;11.90;98.90;;;9.96;100.00;101134.91;5026997;28;20405;-80
2021/11/20 14:23:32;;;;;;;19.67;10.97;;;11.90;98.80;;;9.98;100.00;101125.53;5010647;28;20040;-81
2021/11/20 14:26:04;;;;;;;17.60;11.73;;;11.90;98.60;;;9.96;100.00;101124.03;5026370;28;20875;-83
2021/11/20 14:28:42;;;;;;;16.25;10.77;;;11.90;98.80;;;9.97;100.00;101114.84;4995221;28;20037;-82
2021/11/20 14:31:12;;;;;;;17.02;11.57;;;11.90;98.90;;;9.96;100.00;101110.44;5009447;28;20887;-82
2021/11/20 14:33:52;;;;;;;18.02;11.57;;;11.90;98.30;;;9.89;100.00;101103.94;5004445;28;20049;-82
2021/11/20 14:36:20;;;;;;;22.10;12.38;;;11.90;98.50;;;9.88;100.00;101108.53;5005131;28;20049;-82
2021/11/20 14:38:52;;;;;;;19.15;11.85;;;11.80;98.20;;;9.86;100.00;101104.25;4998464;28;20050;-82
2021/11/20 14:41:20;;;;;;;17.02;11.98;;;11.80;98.50;;;9.89;100.00;101098.50;5006301;28;20042;-82
2021/11/20 14:43:48;;;;;;;19.33;11.90;;;11.80;98.70;;;9.85;100.00;101088.97;5005654;28;20099;-82
2021/11/20 14:46:19;;;;;;;17.15;11.88;;;11.80;98.60;;;9.87;100.00;101089.66;5007175;28;20052;-82
2021/11/20 14:48:46;;;;;;;17.95;11.82;;;11.80;98.70;;;9.83;100.00;101088.31;5011640;28;20061;-82
2021/11/20 14:51:14;;;;;;;18.38;12.27;;;11.80;97.70;;;9.82;100.00;101092.03;4998785;28;20034;-82
2021/11/20 14:53:42;;;;;;;20.55;13.13;;;11.80;98.10;;;9.77;100.00;101093.38;5002829;28;20060;-82
2021/11/20 14:56:13;;;;;;;22.98;13.00;;;11.80;98.00;;;9.69;100.00;101082.50;4994386;28;20042;-82
2021/11/20 14:58:42;;;;;;;19.50;12.25;;;11.80;97.90;;;9.67;100.00;101078.22;4999650;28;20077;-83
2021/11/20 15:01:11;;;;;;;19.50;12.48;;;11.70;97.60;;;9.73;100.00;101075.69;5003097;28;20456;-81
2021/11/20 15:03:42;;;;;;;18.05;11.48;;;11.70;98.10;;;9.72;100.00;101068.53;5003336;28;20538;-80
2021/11/20 15:06:11;;;;;;;20.55;12.23;;;11.70;98.30;;;9.72;100.00;101067.69;4998198;28;20125;-81
2021/11/20 15:08:39;;;;;;;19.58;12.15;;;11.70;97.90;;;9.70;100.00;101065.16;5011158;28;20472;-81
2021/11/20 15:11:08;;;;;;;21.95;13.48;;;11.70;98.20;;;9.67;100.00;101059.19;5010794;28;20138;-81
2021/11/20 15:13:35;;;;;;;22.50;13.75;;;11.70;98.30;;;9.57;100.00;101048.47;5001478;28;20050;-81
2021/11/20 15:16:04;;;;;;;20.60;13.57;;;11.70;98.30;;;9.66;100.00;101043.91;5010335;28;20136;-82
2021/11/20 15:18:32;;;;;;;22.02;13.88;;;11.60;97.90;;;9.68;100.00;101034.56;4993523;28;20494;-85
2021/11/20 15:21:00;;;;;;;24.02;13.75;;;11.60;98.30;;;9.62;100.00;101040.66;5011095;28;20038;-81
2021/11/20 15:23:27;;;;;;;22.90;13.98;;;11.60;98.40;;;9.62;100.00;101035.25;5005024;28;20148;-79
2021/11/20 15:25:55;;;;;;;23.40;14.20;;;11.60;98.40;;;9.57;100.00;101033.00;5025513;28;20070;-80
2021/11/20 15:28:22;;;;;;;22.17;13.65;;;11.60;98.30;;;9.55;100.00;101028.75;5008914;28;20053;-81
2021/11/20 15:30:49;;;;;;;21.60;13.38;;;11.60;98.40;;;9.53;100.00;101025.34;4996773;28;20132;-81
2021/11/20 15:33:17;;;;;;;27.30;15.05;;;11.60;98.30;;;9.53;100.00;101014.50;5004616;28;20042;-82
2021/11/20 15:35:45;;;;;;;23.20;14.50;;;11.60;98.40;;;9.50;100.00;101009.38;5009646;28;20516;-83
2021/11/20 15:38:13;;;;;;;25.00;15.30;;;11.60;98.60;;;9.49;100.00;101018.56;4993061;28;20048;-82
2021/11/20 15:40:41;;;;;;;27.02;15.35;;;11.60;98.40;;;9.46;100.00;101013.44;5006263;28;20050;-83
2021/11/20 15:43:08;;;;;;;27.88;15.20;;;11.60;98.20;;;9.47;100.00;101009.72;5010081;28;20856;-84
2021/11/20 15:45:36;;;;;;;24.02;15.35;;;11.50;98.40;;;9.44;100.00;101007.31;5004052;28;20138;-84
2021/11/20 15:48:03;;;;;;;25.88;14.50;;;11.50;98.20;;;9.47;100.00;100996.97;5004849;28;20077;-84
2021/11/20 15:50:31;;;;;;;24.98;14.73;;;11.50;98.60;;;9.42;100.00;100996.63;4994316;28;20042;-84
2021/11/20 15:52:59;;;;;;;26.27;15.80;;;11.50;98.60;;;9.40;100.00;100993.22;5002814;28;20466;-84
2021/11/20 15:55:27;;;;;;;24.25;15.43;;;11.50;98.50;;;9.37;100.00;100990.84;5012323;28;20050;-84
2021/11/20 15:57:54;;;;;;;33.60;15.82;;;11.50;98.60;;;9.36;100.00;100987.25;5013605;28;20053;-84
2021/11/20 16:00:24;;;;;;;28.58;15.70;;;11.50;98.60;;;9.37;100.00;100986.25;5000156;28;20121;-85
2021/11/20 16:02:53;;;;;;;25.60;15.77;;;11.50;98.60;;;9.42;100.00;100983.03;4990955;28;20121;-84
2021/11/20 16:05:22;;;;;;;27.33;16.27;;;11.40;98.60;;;9.38;100.00;100985.22;5007372;28;20120;-84
2021/11/20 16:07:49;;;;;;;29.10;16.95;;;11.40;98.40;;;9.37;100.00;100983.53;5010336;28;20092;-83
2021/11/20 16:10:18;;;;;;;26.33;16.67;;;11.50;98.40;;;9.35;100.00;100980.16;5010064;28;20116;-84
2021/11/20 16:12:46;;;;;;;27.25;16.48;;;11.40;98.30;;;9.32;100.00;100974.19;5010081;28;20100;-83
2021/11/20 16:15:15;;;;;;;28.02;16.08;;;11.40;97.90;;;9.26;100.00;100969.41;5023589;28;20073;-84
2021/11/20 16:17:42;;;;;;;28.75;15.65;;;11.40;97.80;;;9.25;100.00;100957.69;5008418;28;20104;-84
2021/11/20 16:20:11;;;;;;;27.40;16.15;;;11.30;97.90;;;9.26;100.00;100953.97;5001820;28;20139;-83
2021/11/20 16:22:40;;;;;;;26.58;15.27;;;11.30;97.80;;;9.23;100.00;100948.00;5009887;28;20046;-83
2021/11/20 16:25:09;;;;;;;27.17;16.40;;;11.30;97.80;;;9.26;100.00;100953.97;5008250;28;20126;-84
2021/11/20 16:27:38;;;;;;;28.27;16.63;;;11.30;98.10;;;9.27;100.00;100950.25;5009911;28;20104;-83
2021/11/20 16:30:07;;;;;;;27.63;16.67;;;11.30;98.00;;;9.27;100.00;100944.81;5009719;28;20057;-83
2021/11/20 16:32:35;;;;;;;27.88;16.40;;;11.30;98.00;;;9.29;100.00;100940.06;5009832;28;20482;-83
2021/11/20 16:35:05;;;;;;;30.88;17.25;;;11.30;98.10;;;9.30;100.00;100936.31;5006974;28;20120;-83
2021/11/20 16:37:32;;;;;;;26.77;16.08;;;11.30;98.10;;;9.24;100.00;100939.72;5025064;28;20050;-83
2021/11/20 16:40:00;;;;;;;27.08;16.40;;;11.30;98.00;;;9.23;100.00;100938.00;5009841;28;20080;-83
2021/11/20 16:42:27;;;;;;;25.08;15.95;;;11.30;98.10;;;9.24;100.00;100920.69;5009935;28;20042;-83
2021/11/20 16:44:56;;;;;;;30.83;17.35;;;11.30;98.30;;;9.27;100.00;100916.78;5006346;28;20042;-83
2021/11/20 16:47:23;;;;;;;27.75;16.13;;;11.30;98.10;;;9.26;100.00;100918.66;4995218;28;20050;-83
2021/11/20 16:49:51;;;;;;;27.70;16.27;;;11.30;98.00;;;9.28;100.00;100919.34;4989898;28;20145;-83
2021/11/20 16:52:25;;;;;;;28.77;16.67;;;11.30;98.00;;;9.29;100.00;100912.91;4989841;28;20418;-88
2021/11/20 16:54:52;;;;;;;31.88;18.20;;;11.20;98.10;;;9.28;100.00;100910.34;5003641;28;20600;-83
2021/11/20 16:57:22;;;;;;;32.75;19.63;;;11.20;97.80;;;9.22;100.00;100897.44;5024629;28;20116;-83
2021/11/20 16:59:50;;;;;;;31.20;18.67;;;11.20;98.10;;;9.21;100.00;100896.56;5009497;28;20046;-84
2021/11/20 17:02:19;;;;;;;33.05;20.10;;;11.20;97.90;;;9.23;100.00;100896.41;5002570;28;20046;-85
2021/11/20 17:04:47;;;;;;;35.60;19.48;;;11.20;98.20;;;9.24;100.00;100896.25;5006268;28;20073;-82
2021/11/20 17:07:15;;;;;;;33.83;18.67;;;11.20;98.20;;;9.21;100.00;100899.28;5009462;28;20469;-83
2021/11/20 17:09:43;;;;;;;35.15;20.10;;;11.20;98.10;;;9.21;100.00;100891.16;5006643;28;20045;-83
2021/11/20 17:12:11;;;;;;;39.20;21.48;;;11.20;97.90;;;9.21;100.00;100893.84;5009465;28;20046;-83
2021/11/20 17:14:39;;;;;;;32.10;20.25;;;11.20;97.90;;;9.15;100.00;100892.66;5007688;28;20461;-86
2021/11/20 17:17:08;;;;;;;34.45;20.23;;;11.20;97.90;;;9.15;100.00;100886.38;5009314;28;20042;-86
2021/11/20 17:19:37;;;;;;;34.90;20.48;;;11.20;98.10;;;9.14;100.00;100903.72;5009027;28;20045;-89
2021/11/20 17:22:05;;;;;;;32.10;19.98;;;11.20;97.90;;;9.13;100.00;100894.69;5007508;28;20050;-86
2021/11/20 17:24:34;;;;;;;36.45;21.08;;;11.20;97.90;;;9.14;100.00;100890.13;5006746;28;20073;-88
2021/11/20 17:27:46;;;;;;;;;;;;;;;;;;;;;
2021/11/20 17:30:15;;;;;;;35.85;20.85;;;11.20;97.60;;;9.13;100.00;100893.84;5006159;28;20038;-88
2021/11/20 17:32:42;;;;;;;37.63;20.48;;;11.20;97.70;;;9.09;100.00;100887.06;4999253;28;20069;-88
2021/11/20 17:35:11;;;;;;;35.63;20.73;;;11.10;97.60;;;9.08;100.00;100885.34;5008172;28;20077;-89
2021/11/20 17:37:39;;;;;;;37.83;20.58;;;11.10;97.60;;;9.07;100.00;100889.09;5007726;28;20552;-90
2021/11/20 17:40:08;;;;;;;38.70;20.77;;;11.10;97.60;;;9.04;100.00;100873.13;5007839;28;20394;-88
2021/11/20 17:42:36;;;;;;;40.10;20.88;;;11.10;97.40;;;9.04;100.00;100881.25;4999817;28;20066;-91
2021/11/20 17:45:05;;;;;;;42.10;20.90;;;11.10;97.50;;;9.04;100.00;100883.97;5015792;28;20046;-90
2021/11/20 17:47:33;;;;;;;35.17;20.05;;;11.10;97.50;;;9.08;100.00;100874.47;5009848;28;20042;-90
2021/11/20 17:50:00;;;;;;;34.42;20.25;;;11.10;97.60;;;9.05;100.00;100872.13;5009092;28;20556;-90
2021/11/20 17:52:29;;;;;;;34.13;19.75;;;11.10;97.70;;;9.02;100.00;100867.00;5023974;28;20145;-91
2021/11/20 17:54:56;;;;;;;33.22;19.52;;;11.10;97.50;;;9.00;100.00;100861.75;5005394;28;20046;-88
2021/11/20 17:57:24;;;;;;;38.58;19.65;;;11.10;97.50;;;8.99;100.00;100855.47;5005578;28;20062;-88
2021/11/20 17:59:51;;;;;;;34.05;19.00;;;11.10;97.60;;;8.98;100.00;100858.34;5005699;28;20050;-89
2021/11/20 18:02:20;;;;;;;36.63;19.45;;;11.10;97.70;;;8.95;100.00;100859.53;5008741;28;20050;-89